sensor_id;sensor_type;location;lat;lon;timestamp;pressure;altitude;pressure_sealevel;temperature;humidity
60170;BME280;46042;49.444;6.862;2023-01-29T00:47:54;99865.53;;;-1.77;99.77
60170;BME280;46042;49.444;6.862;2023-01-29T00:51:00;99873.31;;;-1.66;100.00
60170;BME280;46042;49.444;6.862;2023-01-29T00:54:01;99877.63;;;-1.62;100.00
60170;BME280;46042;49.444;6.862;2023-01-29T00:57:09;99873.28;;;-1.67;95.64
60170;BME280;46042;49.444;6.862;2023-01-29T00:59:47;99874.19;;;-1.64;100.00
60170;BME280;46042;49.444;6.862;2023-01-29T01:02:46;99884.53;;;-1.61;100.00
60170;BME280;46042;49.444;6.862;2023-01-29T01:06:07;99891.41;;;-1.60;100.00
60170;BME280;46042;49.444;6.862;2023-01-29T01:08:40;99894.00;;;-1.58;100.00
60170;BME280;46042;49.444;6.862;2023-01-29T01:11:42;99900.03;;;-1.61;100.00
60170;BME280;46042;49.444;6.862;2023-01-29T01:14:25;99897.44;;;-1.58;100.00
60170;BME280;46042;49.444;6.862;2023-01-29T01:16:57;99899.19;;;-1.55;100.00
60170;BME280;46042;49.444;6.862;2023-01-29T01:19:30;99904.34;;;-1.55;100.00
60170;BME280;46042;49.444;6.862;2023-01-29T01:22:30;99900.06;;;-1.53;100.00
60170;BME280;46042;49.444;6.862;2023-01-29T01:25:31;99896.59;;;-1.55;100.00
60170;BME280;46042;49.444;6.862;2023-01-29T01:28:03;99891.44;;;-1.52;100.00
60170;BME280;46042;49.444;6.862;2023-01-29T01:30:36;99894.03;;;-1.50;100.00
60170;BME280;46042;49.444;6.862;2023-01-29T01:33:07;99893.16;;;-1.54;100.00
60170;BME280;46042;49.444;6.862;2023-01-29T01:35:43;99889.75;;;-1.48;100.00
60170;BME280;46042;49.444;6.862;2023-01-29T01:38:23;99884.59;;;-1.44;100.00
60170;BME280;46042;49.444;6.862;2023-01-29T01:40:56;99878.56;;;-1.41;100.00
60170;BME280;46042;49.444;6.862;2023-01-29T01:43:45;99885.44;;;-1.40;98.69
60170;BME280;46042;49.444;6.862;2023-01-29T01:46:36;99870.78;;;-1.50;96.50
60170;BME280;46042;49.444;6.862;2023-01-29T01:49:17;99862.16;;;-1.51;95.01
60170;BME280;46042;49.444;6.862;2023-01-29T01:51:58;99863.88;;;-1.50;96.67
60170;BME280;46042;49.444;6.862;2023-01-29T01:54:34;99854.41;;;-1.51;97.51
60170;BME280;46042;49.444;6.862;2023-01-29T01:57:15;99856.13;;;-1.50;98.53
60170;BME280;46042;49.444;6.862;2023-01-29T02:00:09;99849.25;;;-1.49;98.26
60170;BME280;46042;49.444;6.862;2023-01-29T02:03:03;99857.00;;;-1.48;98.72
60170;BME280;46042;49.444;6.862;2023-01-29T02:06:02;99857.03;;;-1.45;99.21
60170;BME280;46042;49.444;6.862;2023-01-29T02:12:27;99857.03;;;-1.45;100.00
60170;BME280;46042;49.444;6.862;2023-01-29T02:15:13;99851.81;;;-1.48;97.96
60170;BME280;46042;49.444;6.862;2023-01-29T02:18:32;99856.97;;;-1.54;99.63
60170;BME280;46042;49.444;6.862;2023-01-29T02:30:11;99844.84;;;-1.75;93.10
60170;BME280;46042;49.444;6.862;2023-01-29T02:39:57;99835.28;;;-2.00;94.14
60170;BME280;46042;49.444;6.862;2023-01-29T02:53:29;99825.78;;;-2.04;95.69
60170;BME280;46042;49.444;6.862;2023-01-29T02:56:52;99843.88;;;-2.02;95.14
60170;BME280;46042;49.444;6.862;2023-01-29T02:59:39;99843.88;;;-2.04;96.45
60170;BME280;46042;49.444;6.862;2023-01-29T03:02:43;99848.16;;;-2.09;94.26
60170;BME280;46042;49.444;6.862;2023-01-29T03:05:23;99848.94;;;-2.22;92.39
60170;BME280;46042;49.444;6.862;2023-01-29T03:08:06;99852.44;;;-2.12;97.16
60170;BME280;46042;49.444;6.862;2023-01-29T03:11:04;99862.75;;;-2.09;96.39
60170;BME280;46042;49.444;6.862;2023-01-29T03:16:43;99861.09;;;-2.01;98.01
60170;BME280;46042;49.444;6.862;2023-01-29T03:22:20;99852.53;;;-1.92;100.00
60170;BME280;46042;49.444;6.862;2023-01-29T03:25:04;99855.09;;;-1.91;99.37
60170;BME280;46042;49.444;6.862;2023-01-29T03:27:57;99849.06;;;-1.93;97.65
60170;BME280;46042;49.444;6.862;2023-01-29T03:30:54;99855.94;;;-2.00;93.63
60170;BME280;46042;49.444;6.862;2023-01-29T03:37:30;99853.31;;;-2.09;96.14
60170;BME280;46042;49.444;6.862;2023-01-29T03:40:03;99858.50;;;-2.06;99.77
60170;BME280;46042;49.444;6.862;2023-01-29T03:42:43;99851.63;;;-2.02;100.00
60170;BME280;46042;49.444;6.862;2023-01-29T03:48:25;99864.53;;;-2.02;94.33
60170;BME280;46042;49.444;6.862;2023-01-29T03:59:05;99845.53;;;-2.20;98.91
60170;BME280;46042;49.444;6.862;2023-01-29T04:01:53;99847.25;;;-2.19;96.18
60170;BME280;46042;49.444;6.862;2023-01-29T04:04:33;99848.91;;;-2.27;93.63
60170;BME280;46042;49.444;6.862;2023-01-29T04:07:11;99850.56;;;-2.38;92.59
60170;BME280;46042;49.444;6.862;2023-01-29T04:09:48;99858.31;;;-2.37;99.89
60170;BME280;46042;49.444;6.862;2023-01-29T04:12:22;99854.03;;;-2.33;100.00
60170;BME280;46042;49.444;6.862;2023-01-29T04:14:52;99860.97;;;-2.27;98.88
60170;BME280;46042;49.444;6.862;2023-01-29T04:17:27;99853.22;;;-2.24;98.41
60170;BME280;46042;49.444;6.862;2023-01-29T04:19:59;99833.38;;;-2.32;96.22
60170;BME280;46042;49.444;6.862;2023-01-29T04:22:32;99844.59;;;-2.30;96.66
60170;BME280;46042;49.444;6.862;2023-01-29T04:25:02;99837.66;;;-2.37;98.34
60170;BME280;46042;49.444;6.862;2023-01-29T04:27:51;99844.56;;;-2.33;99.01
60170;BME280;46042;49.444;6.862;2023-01-29T04:30:58;99848.84;;;-2.35;98.89
60170;BME280;46042;49.444;6.862;2023-01-29T04:36:36;99846.22;;;-2.47;96.01
60170;BME280;46042;49.444;6.862;2023-01-29T04:42:10;99842.75;;;-2.48;97.98
60170;BME280;46042;49.444;6.862;2023-01-29T04:44:46;99849.63;;;-2.50;98.52
60170;BME280;46042;49.444;6.862;2023-01-29T04:50:23;99858.22;;;-2.51;99.81
60170;BME280;46042;49.444;6.862;2023-01-29T04:53:03;99859.03;;;-2.57;99.87
60170;BME280;46042;49.444;6.862;2023-01-29T04:55:46;99853.84;;;-2.61;100.00
60170;BME280;46042;49.444;6.862;2023-01-29T05:00:48;99861.53;;;-2.70;100.00
60170;BME280;46042;49.444;6.862;2023-01-29T05:03:20;99866.66;;;-2.74;100.00
60170;BME280;46042;49.444;6.862;2023-01-29T05:05:49;99852.84;;;-2.80;100.00
60170;BME280;46042;49.444;6.862;2023-01-29T05:08:19;99860.53;;;-2.83;100.00
60170;BME280;46042;49.444;6.862;2023-01-29T05:10:48;99848.47;;;-2.89;100.00
60170;BME280;46042;49.444;6.862;2023-01-29T05:13:17;99848.41;;;-2.95;100.00
60170;BME280;46042;49.444;6.862;2023-01-29T05:18:36;99833.69;;;-3.10;99.86
60170;BME280;46042;49.444;6.862;2023-01-29T05:21:05;99843.13;;;-3.09;100.00
60170;BME280;46042;49.444;6.862;2023-01-29T05:23:33;99846.56;;;-3.09;100.00
60170;BME280;46042;49.444;6.862;2023-01-29T05:26:00;99853.47;;;-3.08;100.00
60170;BME280;46042;49.444;6.862;2023-01-29T05:28:26;99850.91;;;-3.06;100.00
60170;BME280;46042;49.444;6.862;2023-01-29T05:30:54;99846.56;;;-3.09;100.00
60170;BME280;46042;49.444;6.862;2023-01-29T05:33:27;99857.72;;;-3.10;100.00
60170;BME280;46042;49.444;6.862;2023-01-29T05:35:55;99857.72;;;-3.11;100.00
60170;BME280;46042;49.444;6.862;2023-01-29T05:38:22;99859.44;;;-3.13;100.00
60170;BME280;46042;49.444;6.862;2023-01-29T05:40:49;99853.41;;;-3.16;100.00
60170;BME280;46042;49.444;6.862;2023-01-29T05:43:18;99846.50;;;-3.18;100.00
60170;BME280;46042;49.444;6.862;2023-01-29T05:45:56;99839.53;;;-3.25;100.00
60170;BME280;46042;49.444;6.862;2023-01-29T05:48:25;99836.88;;;-3.35;100.00
60170;BME280;46042;49.444;6.862;2023-01-29T05:50:53;99842.06;;;-3.33;100.00
60170;BME280;46042;49.444;6.862;2023-01-29T05:53:20;99840.38;;;-3.30;100.00
60170;BME280;46042;49.444;6.862;2023-01-29T05:55:47;99850.66;;;-3.30;100.00
60170;BME280;46042;49.444;6.862;2023-01-29T05:58:14;99850.66;;;-3.30;100.00
60170;BME280;46042;49.444;6.862;2023-01-29T06:00:40;99853.22;;;-3.33;100.00
60170;BME280;46042;49.444;6.862;2023-01-29T06:03:07;99857.53;;;-3.32;100.00
60170;BME280;46042;49.444;6.862;2023-01-29T06:05:36;99847.19;;;-3.35;100.00
60170;BME280;46042;49.444;6.862;2023-01-29T06:08:04;99845.50;;;-3.33;100.00
60170;BME280;46042;49.444;6.862;2023-01-29T06:10:30;99837.75;;;-3.36;100.00
60170;BME280;46042;49.444;6.862;2023-01-29T06:12:57;99838.59;;;-3.37;100.00
60170;BME280;46042;49.444;6.862;2023-01-29T06:15:24;99833.41;;;-3.40;100.00
60170;BME280;46042;49.444;6.862;2023-01-29T06:17:55;99835.06;;;-3.45;100.00
60170;BME280;46042;49.444;6.862;2023-01-29T06:20:23;99839.28;;;-3.53;100.00
60170;BME280;46042;49.444;6.862;2023-01-29T06:22:49;99842.63;;;-3.61;100.00
60170;BME280;46042;49.444;6.862;2023-01-29T06:25:16;99842.63;;;-3.62;100.00
60170;BME280;46042;49.444;6.862;2023-01-29T06:27:42;99848.63;;;-3.63;100.00
60170;BME280;46042;49.444;6.862;2023-01-29T06:30:09;99857.16;;;-3.66;100.00
60170;BME280;46042;49.444;6.862;2023-01-29T06:32:37;99855.47;;;-3.65;100.00
60170;BME280;46042;49.444;6.862;2023-01-29T06:35:04;99865.78;;;-3.62;100.00
60170;BME280;46042;49.444;6.862;2023-01-29T06:37:31;99864.88;;;-3.66;100.00
60170;BME280;46042;49.444;6.862;2023-01-29T06:39:57;99863.19;;;-3.65;100.00
60170;BME280;46042;49.444;6.862;2023-01-29T06:42:24;99852.03;;;-3.64;100.00
60170;BME280;46042;49.444;6.862;2023-01-29T06:44:56;99857.16;;;-3.67;100.00
60170;BME280;46042;49.444;6.862;2023-01-29T06:47:23;99872.59;;;-3.69;100.00
60170;BME280;46042;49.444;6.862;2023-01-29T06:49:50;99875.16;;;-3.69;100.00
60170;BME280;46042;49.444;6.862;2023-01-29T06:52:17;99862.28;;;-3.69;100.00
60170;BME280;46042;49.444;6.862;2023-01-29T06:54:44;99861.47;;;-3.66;100.00
60170;BME280;46042;49.444;6.862;2023-01-29T06:57:10;99857.16;;;-3.67;100.00
60170;BME280;46042;49.444;6.862;2023-01-29T06:59:37;99849.38;;;-3.72;100.00
60170;BME280;46042;49.444;6.862;2023-01-29T07:02:04;99843.31;;;-3.76;100.00
60170;BME280;46042;49.444;6.862;2023-01-29T07:04:30;99852.66;;;-3.82;100.00
60170;BME280;46042;49.444;6.862;2023-01-29T07:06:58;99852.59;;;-3.87;100.00
60170;BME280;46042;49.444;6.862;2023-01-29T07:09:25;99851.66;;;-3.94;100.00
60170;BME280;46042;49.444;6.862;2023-01-29T07:11:52;99864.53;;;-3.94;100.00
60170;BME280;46042;49.444;6.862;2023-01-29T07:14:18;99865.38;;;-3.95;100.00
60170;BME280;46042;49.444;6.862;2023-01-29T07:16:45;99870.53;;;-3.96;100.00
60170;BME280;46042;49.444;6.862;2023-01-29T07:19:11;99871.44;;;-3.93;100.00
60170;BME280;46042;49.444;6.862;2023-01-29T07:21:39;99867.19;;;-3.91;100.00
60170;BME280;46042;49.444;6.862;2023-01-29T07:24:05;99865.47;;;-3.89;100.00
60170;BME280;46042;49.444;6.862;2023-01-29T07:26:32;99868.06;;;-3.87;100.00
60170;BME280;46042;49.444;6.862;2023-01-29T07:28:59;99862.94;;;-3.86;100.00
60170;BME280;46042;49.444;6.862;2023-01-29T07:31:25;99868.94;;;-3.87;100.00
60170;BME280;46042;49.444;6.862;2023-01-29T07:33:52;99859.38;;;-3.94;100.00
60170;BME280;46042;49.444;6.862;2023-01-29T07:36:19;99864.53;;;-3.94;100.00
60170;BME280;46042;49.444;6.862;2023-01-29T07:38:49;99861.88;;;-4.02;100.00
60170;BME280;46042;49.444;6.862;2023-01-29T07:41:16;99864.44;;;-4.03;100.00
60170;BME280;46042;49.444;6.862;2023-01-29T07:43:43;99863.56;;;-4.04;100.00
60170;BME280;46042;49.444;6.862;2023-01-29T07:46:09;99865.28;;;-4.04;100.00
60170;BME280;46042;49.444;6.862;2023-01-29T07:48:36;99867.84;;;-4.03;100.00
60170;BME280;46042;49.444;6.862;2023-01-29T07:51:03;99873.91;;;-3.99;100.00
60170;BME280;46042;49.444;6.862;2023-01-29T07:53:30;99886.81;;;-3.97;100.00
60170;BME280;46042;49.444;6.862;2023-01-29T07:55:57;99883.41;;;-3.96;100.00
60170;BME280;46042;49.444;6.862;2023-01-29T07:58:23;99891.13;;;-3.96;100.00
60170;BME280;46042;49.444;6.862;2023-01-29T08:00:50;99897.16;;;-3.94;100.00
60170;BME280;46042;49.444;6.862;2023-01-29T08:03:17;99895.44;;;-3.94;100.00
60170;BME280;46042;49.444;6.862;2023-01-29T08:05:45;99910.91;;;-3.92;100.00
60170;BME280;46042;49.444;6.862;2023-01-29T08:08:12;99916.94;;;-3.92;100.00
60170;BME280;46042;49.444;6.862;2023-01-29T08:10:39;99917.81;;;-3.90;100.00
60170;BME280;46042;49.444;6.862;2023-01-29T08:13:07;99913.56;;;-3.88;100.00
60170;BME280;46042;49.444;6.862;2023-01-29T08:15:34;99914.41;;;-3.87;100.00
60170;BME280;46042;49.444;6.862;2023-01-29T08:18:04;99902.25;;;-3.96;100.00
60170;BME280;46042;49.444;6.862;2023-01-29T08:20:30;99903.06;;;-4.00;100.00
60170;BME280;46042;49.444;6.862;2023-01-29T08:22:59;99899.75;;;-3.93;100.00
60170;BME280;46042;49.444;6.862;2023-01-29T08:25:26;99902.41;;;-3.87;100.00
60170;BME280;46042;49.444;6.862;2023-01-29T08:27:55;99904.19;;;-3.81;100.00
60170;BME280;46042;49.444;6.862;2023-01-29T08:30:29;99912.00;;;-3.76;100.00
60170;BME280;46042;49.444;6.862;2023-01-29T08:32:56;99904.28;;;-3.73;100.00
60170;BME280;46042;49.444;6.862;2023-01-29T08:35:24;99905.94;;;-3.78;100.00
60170;BME280;46042;49.444;6.862;2023-01-29T08:37:58;99907.69;;;-3.76;100.00
60170;BME280;46042;49.444;6.862;2023-01-29T08:40:26;99909.47;;;-3.68;100.00
60170;BME280;46042;49.444;6.862;2023-01-29T08:43:01;99910.47;;;-3.60;100.00
60170;BME280;46042;49.444;6.862;2023-01-29T08:45:32;99907.06;;;-3.58;100.00
60170;BME280;46042;49.444;6.862;2023-01-29T08:48:00;99897.63;;;-3.54;100.00
60170;BME280;46042;49.444;6.862;2023-01-29T08:50:27;99886.56;;;-3.47;100.00
60170;BME280;46042;49.444;6.862;2023-01-29T08:53:00;99881.44;;;-3.45;100.00
60170;BME280;46042;49.444;6.862;2023-01-29T08:55:28;99873.72;;;-3.44;100.00
60170;BME280;46042;49.444;6.862;2023-01-29T08:57:55;99876.34;;;-3.39;100.00
60170;BME280;46042;49.444;6.862;2023-01-29T09:00:24;99888.38;;;-3.39;100.00
60170;BME280;46042;49.444;6.862;2023-01-29T09:02:51;99882.38;;;-3.40;100.00
60170;BME280;46042;49.444;6.862;2023-01-29T09:05:17;99880.63;;;-3.39;100.00
60170;BME280;46042;49.444;6.862;2023-01-29T09:07:45;99878.09;;;-3.38;100.00
60170;BME280;46042;49.444;6.862;2023-01-29T09:10:11;99888.34;;;-3.43;100.00
60170;BME280;46042;49.444;6.862;2023-01-29T09:12:38;99898.66;;;-3.39;100.00
60170;BME280;46042;49.444;6.862;2023-01-29T09:15:05;99897.94;;;-3.29;100.00
60170;BME280;46042;49.444;6.862;2023-01-29T09:17:32;99892.84;;;-3.20;100.00
60170;BME280;46042;49.444;6.862;2023-01-29T09:19:59;99901.59;;;-3.05;100.00
60170;BME280;46042;49.444;6.862;2023-01-29T09:22:25;99896.66;;;-2.82;100.00
60170;BME280;46042;49.444;6.862;2023-01-29T09:24:52;99892.56;;;-2.58;100.00
60170;BME280;46042;49.444;6.862;2023-01-29T09:27:18;99896.16;;;-2.36;100.00
60170;BME280;46042;49.444;6.862;2023-01-29T09:29:45;99896.97;;;-2.45;99.34
60170;BME280;46042;49.444;6.862;2023-01-29T09:32:12;99895.31;;;-2.36;99.07
60170;BME280;46042;49.444;6.862;2023-01-29T09:34:38;99898.72;;;-2.39;96.48
60170;BME280;46042;49.444;6.862;2023-01-29T09:37:05;99904.06;;;-2.16;100.00
60170;BME280;46042;49.444;6.862;2023-01-29T09:39:32;99906.72;;;-2.03;99.93
60170;BME280;46042;49.444;6.862;2023-01-29T09:45:03;99904.25;;;-1.78;100.00
60170;BME280;46042;49.444;6.862;2023-01-29T09:47:34;99893.00;;;-1.90;100.00
60170;BME280;46042;49.444;6.862;2023-01-29T09:50:14;99901.72;;;-1.70;100.00
60170;BME280;46042;49.444;6.862;2023-01-29T09:53:05;99884.50;;;-1.64;100.00
60170;BME280;46042;49.444;6.862;2023-01-29T09:55:42;99893.97;;;-1.67;100.00
60170;BME280;46042;49.444;6.862;2023-01-29T09:58:21;99894.81;;;-1.68;99.67
60170;BME280;46042;49.444;6.862;2023-01-29T10:17:53;99889.69;;;-1.67;99.55
60170;BME280;46042;49.444;6.862;2023-01-29T10:25:47;99899.13;;;-1.69;97.41
60170;BME280;46042;49.444;6.862;2023-01-29T10:28:24;99896.50;;;-1.78;98.06
60170;BME280;46042;49.444;6.862;2023-01-29T10:31:03;99895.69;;;-1.73;100.00
60170;BME280;46042;49.444;6.862;2023-01-29T10:33:39;99897.34;;;-1.79;99.13
60170;BME280;46042;49.444;6.862;2023-01-29T10:36:35;99891.31;;;-1.80;98.13
60170;BME280;46042;49.444;6.862;2023-01-29T10:39:04;99879.22;;;-1.90;99.66
60170;BME280;46042;49.444;6.862;2023-01-29T11:01:57;99857.00;;;-1.52;99.25
60170;BME280;46042;49.444;6.862;2023-01-29T11:04:25;99857.88;;;-1.41;99.48
60170;BME280;46042;49.444;6.862;2023-01-29T11:06:53;99844.97;;;-1.33;99.55
60170;BME280;46042;49.444;6.862;2023-01-29T11:12:14;99849.28;;;-1.34;95.80
60170;BME280;46042;49.444;6.862;2023-01-29T11:14:48;99837.25;;;-1.16;97.51
60170;BME280;46042;49.444;6.862;2023-01-29T11:17:24;99831.22;;;-1.18;96.56
60170;BME280;46042;49.444;6.862;2023-01-29T11:19:52;99826.88;;;-1.42;95.22
60170;BME280;46042;49.444;6.862;2023-01-29T11:22:25;99819.06;;;-1.58;93.71
60170;BME280;46042;49.444;6.862;2023-01-29T11:25:18;99814.81;;;-1.36;99.39
60170;BME280;46042;49.444;6.862;2023-01-29T11:27:56;99813.97;;;-1.13;99.49
60170;BME280;46042;49.444;6.862;2023-01-29T11:30:26;99815.69;;;-1.09;99.14
60170;BME280;46042;49.444;6.862;2023-01-29T11:33:17;99803.63;;;-1.05;96.60
60170;BME280;46042;49.444;6.862;2023-01-29T11:35:45;99794.16;;;-1.03;97.84
60170;BME280;46042;49.444;6.862;2023-01-29T11:40:42;99786.41;;;-0.91;97.51
60170;BME280;46042;49.444;6.862;2023-01-29T11:45:42;99778.63;;;-1.16;92.45
60170;BME280;46042;49.444;6.862;2023-01-29T11:48:19;99769.16;;;-1.03;95.08
60170;BME280;46042;49.444;6.862;2023-01-29T11:50:56;99766.56;;;-0.81;98.50
60170;BME280;46042;49.444;6.862;2023-01-29T11:53:35;99769.97;;;-0.68;100.00
60170;BME280;46042;49.444;6.862;2023-01-29T11:58:47;99769.91;;;-0.46;98.09
60170;BME280;46042;49.444;6.862;2023-01-29T12:01:17;99767.31;;;-0.43;96.13
60170;BME280;46042;49.444;6.862;2023-01-29T12:03:51;99768.09;;;-0.16;95.88
60170;BME280;46042;49.444;6.862;2023-01-29T12:06:22;99764.66;;;-0.13;95.80
60170;BME280;46042;49.444;6.862;2023-01-29T12:08:58;99753.47;;;-0.28;90.75
60170;BME280;46042;49.444;6.862;2023-01-29T12:11:29;99747.47;;;-0.43;88.82
60170;BME280;46042;49.444;6.862;2023-01-29T12:13:59;99740.44;;;-0.06;96.59
60170;BME280;46042;49.444;6.862;2023-01-29T12:16:37;99745.56;;;0.06;94.72
60170;BME280;46042;49.444;6.862;2023-01-29T12:19:15;99743.00;;;0.02;93.85
60170;BME280;46042;49.444;6.862;2023-01-29T12:21:51;99750.78;;;0.00;92.43
60170;BME280;46042;49.444;6.862;2023-01-29T12:24:39;99750.81;;;-0.05;91.72
60170;BME280;46042;49.444;6.862;2023-01-29T12:27:18;99746.44;;;0.02;92.99
60170;BME280;46042;49.444;6.862;2023-01-29T12:29:53;99747.28;;;0.06;92.51
60170;BME280;46042;49.444;6.862;2023-01-29T12:32:31;99743.75;;;0.21;93.77
60170;BME280;46042;49.444;6.862;2023-01-29T12:35:12;99742.00;;;0.24;93.15
60170;BME280;46042;49.444;6.862;2023-01-29T12:40:13;99728.13;;;0.36;88.58
60170;BME280;46042;49.444;6.862;2023-01-29T12:42:46;99733.25;;;0.44;91.82
60170;BME280;46042;49.444;6.862;2023-01-29T12:45:20;99721.91;;;0.57;89.61
60170;BME280;46042;49.444;6.862;2023-01-29T12:47:55;99724.69;;;1.33;96.45
60170;BME280;46042;49.444;6.862;2023-01-29T12:50:27;99717.84;;;1.99;90.91
60170;BME280;46042;49.444;6.862;2023-01-29T12:53:04;99714.03;;;2.25;85.28
60170;BME280;46042;49.444;6.862;2023-01-29T12:55:42;99709.63;;;2.28;87.86
60170;BME280;46042;49.444;6.862;2023-01-29T12:58:21;99706.72;;;2.50;85.66
60170;BME280;46042;49.444;6.862;2023-01-29T13:00:51;99700.00;;;2.37;84.37
60170;BME280;46042;49.444;6.862;2023-01-29T13:03:26;99695.78;;;2.81;84.72
60170;BME280;46042;49.444;6.862;2023-01-29T13:05:59;99692.19;;;2.90;79.71
60170;BME280;46042;49.444;6.862;2023-01-29T13:08:42;99689.69;;;2.82;75.14
60170;BME280;46042;49.444;6.862;2023-01-29T13:11:28;99681.81;;;2.89;80.26
60170;BME280;46042;49.444;6.862;2023-01-29T13:14:07;99672.22;;;2.40;77.45
60170;BME280;46042;49.444;6.862;2023-01-29T13:16:42;99675.22;;;2.11;76.52
60170;BME280;46042;49.444;6.862;2023-01-29T13:19:30;99662.59;;;1.86;80.65
60170;BME280;46042;49.444;6.862;2023-01-29T13:22:00;99662.53;;;1.89;80.03
60170;BME280;46042;49.444;6.862;2023-01-29T13:24:35;99660.34;;;2.21;79.71
60170;BME280;46042;49.444;6.862;2023-01-29T13:27:04;99665.25;;;1.83;81.12
60170;BME280;46042;49.444;6.862;2023-01-29T13:29:32;99667.16;;;1.68;82.11
60170;BME280;46042;49.444;6.862;2023-01-29T13:32:01;99667.34;;;1.53;82.52
60170;BME280;46042;49.444;6.862;2023-01-29T13:34:31;99672.09;;;1.17;82.50
60170;BME280;46042;49.444;6.862;2023-01-29T13:37:08;99667.78;;;1.14;81.75
60170;BME280;46042;49.444;6.862;2023-01-29T13:39:38;99660.09;;;1.05;82.77
60170;BME280;46042;49.444;6.862;2023-01-29T13:42:19;99671.69;;;0.68;82.06
60170;BME280;46042;49.444;6.862;2023-01-29T13:44:52;99680.00;;;1.03;87.22
60170;BME280;46042;49.444;6.862;2023-01-29T13:47:25;99681.47;;;1.27;82.46
60170;BME280;46042;49.444;6.862;2023-01-29T13:49:57;99675.66;;;1.06;82.45
60170;BME280;46042;49.444;6.862;2023-01-29T13:52:58;99687.75;;;1.07;83.16
60170;BME280;46042;49.444;6.862;2023-01-29T13:55:39;99684.06;;;1.30;83.34
60170;BME280;46042;49.444;6.862;2023-01-29T13:58:14;99686.34;;;1.55;84.32
60170;BME280;46042;49.444;6.862;2023-01-29T14:08:05;99659.34;;;2.84;79.94
60170;BME280;46042;49.444;6.862;2023-01-29T14:11:34;99656.75;;;2.81;77.99
60170;BME280;46042;49.444;6.862;2023-01-29T14:14:01;99655.91;;;2.81;80.56
60170;BME280;46042;49.444;6.862;2023-01-29T14:16:32;99661.69;;;2.98;77.15
60170;BME280;46042;49.444;6.862;2023-01-29T14:19:02;99657.56;;;2.87;76.50
60170;BME280;46042;49.444;6.862;2023-01-29T14:21:32;99659.22;;;2.39;74.35
60170;BME280;46042;49.444;6.862;2023-01-29T14:24:18;99646.03;;;1.93;76.89
60170;BME280;46042;49.444;6.862;2023-01-29T14:26:48;99649.72;;;1.77;76.62
60170;BME280;46042;49.444;6.862;2023-01-29T14:29:28;99648.50;;;2.01;80.94
60170;BME280;46042;49.444;6.862;2023-01-29T14:32:17;99650.38;;;1.93;76.88
60170;BME280;46042;49.444;6.862;2023-01-29T14:35:09;99651.59;;;2.28;77.92
60170;BME280;46042;49.444;6.862;2023-01-29T14:37:53;99636.38;;;2.58;78.11
60170;BME280;46042;49.444;6.862;2023-01-29T14:40:47;99647.31;;;1.64;76.14
60170;BME280;46042;49.444;6.862;2023-01-29T14:47:59;99639.63;;;1.55;79.83
60170;BME280;46042;49.444;6.862;2023-01-29T14:51:49;99636.75;;;1.75;78.17
60170;BME280;46042;49.444;6.862;2023-01-29T14:55:04;99624.03;;;1.55;84.31
60170;BME280;46042;49.444;6.862;2023-01-29T14:57:32;99625.25;;;1.27;77.41
60170;BME280;46042;49.444;6.862;2023-01-29T15:00:02;99624.63;;;1.05;79.34
60170;BME280;46042;49.444;6.862;2023-01-29T15:02:37;99627.47;;;1.59;82.95
60170;BME280;46042;49.444;6.862;2023-01-29T15:05:24;99624.59;;;1.10;78.74
60170;BME280;46042;49.444;6.862;2023-01-29T15:07:57;99627.19;;;1.10;84.69
60170;BME280;46042;49.444;6.862;2023-01-29T15:10:37;99627.75;;;1.34;84.99
60170;BME280;46042;49.444;6.862;2023-01-29T15:13:16;99638.88;;;1.45;83.02
60170;BME280;46042;49.444;6.862;2023-01-29T15:15:55;99640.19;;;1.07;77.75
60170;BME280;46042;49.444;6.862;2023-01-29T15:18:36;99640.75;;;0.48;78.97
60170;BME280;46042;49.444;6.862;2023-01-29T15:21:15;99635.25;;;0.82;85.20
60170;BME280;46042;49.444;6.862;2023-01-29T15:23:42;99631.16;;;0.61;81.82
60170;BME280;46042;49.444;6.862;2023-01-29T15:26:18;99633.56;;;0.76;84.66
60170;BME280;46042;49.444;6.862;2023-01-29T15:28:59;99631.03;;;0.70;80.94
60170;BME280;46042;49.444;6.862;2023-01-29T15:31:30;99633.59;;;0.73;83.51
60170;BME280;46042;49.444;6.862;2023-01-29T15:34:06;99640.75;;;0.48;82.44
60170;BME280;46042;49.444;6.862;2023-01-29T15:36:33;99631.47;;;0.22;86.38
60170;BME280;46042;49.444;6.862;2023-01-29T15:41:34;99640.94;;;0.23;84.95
60170;BME280;46042;49.444;6.862;2023-01-29T15:44:01;99634.94;;;0.18;87.35
60170;BME280;46042;49.444;6.862;2023-01-29T15:46:33;99625.56;;;0.01;87.14
60170;BME280;46042;49.444;6.862;2023-01-29T15:49:06;99624.06;;;-0.36;85.27
60170;BME280;46042;49.444;6.862;2023-01-29T15:51:34;99621.47;;;-0.37;87.94
60170;BME280;46042;49.444;6.862;2023-01-29T15:54:08;99604.38;;;-0.73;87.80
60170;BME280;46042;49.444;6.862;2023-01-29T15:56:39;99611.28;;;-0.75;91.20
60170;BME280;46042;49.444;6.862;2023-01-29T15:59:07;99605.19;;;-0.63;91.54
60170;BME280;46042;49.444;6.862;2023-01-29T16:01:38;99602.66;;;-0.74;89.62
60170;BME280;46042;49.444;6.862;2023-01-29T16:04:10;99606.91;;;-0.57;91.29
60170;BME280;46042;49.444;6.862;2023-01-29T16:06:39;99602.59;;;-0.61;91.63
60170;BME280;46042;49.444;6.862;2023-01-29T16:09:14;99604.38;;;-0.77;91.80
60170;BME280;46042;49.444;6.862;2023-01-29T16:11:43;99612.16;;;-0.74;91.29
60170;BME280;46042;49.444;6.862;2023-01-29T16:14:13;99606.13;;;-0.75;92.04
60170;BME280;46042;49.444;6.862;2023-01-29T16:16:41;99602.69;;;-0.77;93.31
60170;BME280;46042;49.444;6.862;2023-01-29T16:19:25;99598.38;;;-0.78;92.92
60170;BME280;46042;49.444;6.862;2023-01-29T16:21:59;99594.94;;;-0.84;91.51
60170;BME280;46042;49.444;6.862;2023-01-29T16:24:27;99608.75;;;-0.89;92.91
60170;BME280;46042;49.444;6.862;2023-01-29T16:27:07;99601.84;;;-0.88;93.95
60170;BME280;46042;49.444;6.862;2023-01-29T16:29:36;99601.00;;;-0.90;93.67
60170;BME280;46042;49.444;6.862;2023-01-29T16:32:04;99596.72;;;-0.93;92.74
60170;BME280;46042;49.444;6.862;2023-01-29T16:34:37;99601.03;;;-0.96;92.48
60170;BME280;46042;49.444;6.862;2023-01-29T16:37:29;99596.75;;;-1.01;92.89
60170;BME280;46042;49.444;6.862;2023-01-29T16:39:56;99611.38;;;-1.06;93.06
60170;BME280;46042;49.444;6.862;2023-01-29T16:42:32;99607.94;;;-1.08;93.48
60170;BME280;46042;49.444;6.862;2023-01-29T16:47:37;99611.44;;;-1.20;93.82